Time;durP1;ratioP1;P1;durP2;ratioP2;P2;SDS_P1;SDS_P2;PMS_P1;PMS_P2;Temp;Humidity;BMP_temperature;BMP_pressure;BME280_temperature;BME280_humidity;BME280_pressure;Samples;Min_cycle;Max_cycle;Signal;HPM_P1;HPM_P2
2022/12/12 00:00:39;;;;;;;6.10;5.50;;;;;;;19.69;43.94;96592.81;4921690;28;20226;-91
2022/12/12 00:03:06;;;;;;;6.57;5.97;;;;;;;18.59;44.37;96406.06;4929800;28;20289;-91
2022/12/12 00:05:32;;;;;;;6.13;5.53;;;;;;;18.58;44.07;96406.88;4929997;28;20194;-92
2022/12/12 00:07:59;;;;;;;6.53;5.93;;;;;;;19.02;43.92;96490.19;4921897;29;20213;-92
2022/12/12 00:10:26;;;;;;;6.53;5.90;;;;;;;19.05;44.08;96501.31;4921661;29;20186;-92
2022/12/12 00:12:52;;;;;;;6.17;5.63;;;;;;;19.70;43.71;96604.72;4935796;28;20218;-92
2022/12/12 00:15:19;;;;;;;5.67;5.17;;;;;;;19.53;44.02;96583.97;4940497;28;20221;-92
2022/12/12 00:17:45;;;;;;;6.50;5.90;;;;;;;19.08;44.11;96503.06;4935271;28;20271;-93
2022/12/12 00:20:12;;;;;;;6.07;5.57;;;;;;;19.65;44.13;96607.19;4921248;28;20213;-92
2022/12/12 00:22:39;;;;;;;6.63;5.70;;;;;;;18.64;43.92;96422.28;4929501;28;20250;-90
2022/12/12 00:25:06;;;;;;;6.00;5.40;;;;;;;19.26;43.87;96532.38;4928780;28;20193;-91
2022/12/12 00:27:33;;;;;;;7.20;6.17;;;;;;;19.13;43.72;96522.72;4937195;28;20202;-90
2022/12/12 00:29:59;;;;;;;6.47;5.87;;;;;;;19.17;43.99;96519.44;4927006;28;20190;-92
2022/12/12 00:32:26;;;;;;;5.93;5.43;;;;;;;19.28;44.05;96553.69;4932000;28;20268;-92
2022/12/12 00:34:52;;;;;;;6.27;5.67;;;;;;;18.81;44.04;96448.97;4941805;28;20214;-93
2022/12/12 00:37:19;;;;;;;6.27;5.67;;;;;;;19.34;44.14;96543.63;4935473;28;20213;-92
2022/12/12 00:39:46;;;;;;;6.67;5.97;;;;;;;19.51;44.13;96574.56;4933694;28;20193;-92
2022/12/12 00:42:12;;;;;;;5.73;5.23;;;;;;;19.36;43.97;96553.84;4937250;28;20217;-91
2022/12/12 00:44:39;;;;;;;5.97;5.47;;;;;;;18.21;44.11;96365.28;4932062;28;20277;-92
2022/12/12 00:47:05;;;;;;;6.00;5.40;;;;;;;19.08;43.81;96506.50;4937511;28;20194;-91
2022/12/12 00:49:32;;;;;;;6.37;5.77;;;;;;;19.86;44.17;96634.81;4924207;28;20189;-92
2022/12/12 00:51:59;;;;;;;5.60;5.10;;;;;;;19.51;44.02;96598.34;4943294;28;20210;-93
2022/12/12 00:54:25;;;;;;;6.67;6.07;;;;;;;19.58;44.04;96590.03;4906289;29;20193;-90
2022/12/12 00:56:52;;;;;;;5.80;5.30;;;;;;;19.93;44.24;96651.97;4944105;28;20245;-92
2022/12/12 00:59:18;;;;;;;5.93;5.43;;;;;;;18.73;44.16;96460.66;4934558;28;20220;-93
2022/12/12 01:01:45;;;;;;;5.50;5.00;;;;;;;19.48;44.05;96580.44;4919252;29;20274;-94
2022/12/12 01:04:11;;;;;;;5.50;5.00;;;;;;;19.78;44.16;96632.09;4928928;28;20217;-91
2022/12/12 01:06:38;;;;;;;6.00;5.23;;;;;;;19.85;44.20;96646.72;4927681;28;20216;-93
2022/12/12 01:09:23;;;;;;;5.80;5.30;;;;;;;19.41;44.14;96570.09;4920457;28;20273;-93
2022/12/12 01:11:50;;;;;;;6.00;5.40;;;;;;;18.64;44.15;96440.97;4917201;28;20229;-93
2022/12/12 01:14:16;;;;;;;6.13;5.53;;;;;;;20.05;44.04;96676.88;4932249;28;20185;-92
2022/12/12 01:16:43;;;;;;;6.20;5.60;;;;;;;19.90;44.29;96651.91;4922482;28;20195;-88
2022/12/12 01:19:09;;;;;;;6.37;5.77;;;;;;;19.56;43.74;96595.91;4936370;28;20201;-91
2022/12/12 01:21:36;;;;;;;5.90;5.40;;;;;;;18.63;43.92;96434.16;4934186;28;20222;-92
2022/12/12 01:24:03;;;;;;;5.80;5.20;;;;;;;19.58;43.96;96600.22;4934239;28;20281;-92
2022/12/12 01:26:30;;;;;;;6.30;5.70;;;;;;;19.77;44.03;96638.03;4918107;28;20266;-92
2022/12/12 01:28:56;;;;;;;5.90;5.40;;;;;;;19.77;44.10;96639.72;4954546;28;20197;-90
2022/12/12 01:31:23;;;;;;;6.07;5.47;;;;;;;19.39;44.16;96577.69;4932291;28;20213;-92
2022/12/12 01:33:49;;;;;;;5.70;5.20;;;;;;;19.84;44.17;96656.88;4938384;28;20186;-91
2022/12/12 01:36:17;;;;;;;5.83;5.33;;;;;;;18.63;44.07;96449.44;4906960;28;20292;-92
2022/12/12 01:38:44;;;;;;;5.60;5.10;;;;;;;18.18;44.07;96366.91;4936133;28;20185;-94
2022/12/12 01:41:11;;;;;;;5.90;5.30;;;;;;;18.77;44.10;96476.03;4938597;28;20222;-90
2022/12/12 01:43:38;;;;;;;5.57;5.07;;;;;;;19.52;44.10;96612.84;4932939;28;20273;-91
2022/12/12 01:46:04;;;;;;;6.20;5.60;;;;;;;20.04;44.24;96690.47;4936657;28;20197;-93
2022/12/12 01:48:39;;;;;;;4.87;4.47;;;;;;;19.69;44.21;96634.44;4934713;28;20217;-92
2022/12/12 01:51:08;;;;;;;5.50;5.00;;;;;;;19.33;44.14;96571.63;4915636;28;20322;-93
2022/12/12 01:53:34;;;;;;;5.60;5.10;;;;;;;19.15;44.04;96559.28;4922615;28;20193;-92
2022/12/12 01:56:02;;;;;;;5.30;4.80;;;;;;;19.25;44.24;96566.31;4924323;28;20213;-90
2022/12/12 01:58:29;;;;;;;5.00;4.60;;;;;;;19.27;44.18;96581.66;4904808;29;20190;-92
2022/12/12 02:00:55;;;;;;;5.50;5.00;;;;;;;19.58;44.40;96635.91;4928252;28;20269;-91
2022/12/12 02:03:22;;;;;;;6.17;5.57;;;;;;;18.76;44.13;96487.06;4908289;28;20221;-93
2022/12/12 02:05:51;;;;;;;6.10;5.60;;;;;;;20.02;43.85;96706.56;4941686;28;20224;-91
2022/12/12 02:08:18;;;;;;;6.10;5.50;;;;;;;19.02;43.96;96543.66;4935056;28;20218;-92
2022/12/12 02:10:45;;;;;;;5.10;4.60;;;;;;;19.72;44.09;96660.00;4907690;29;20205;-93
2022/12/12 02:13:18;;;;;;;5.43;4.80;;;;;;;19.33;44.18;96584.34;4894417;28;20197;-91
2022/12/12 02:16:05;;;;;;;5.90;5.30;;;;;;;20.05;44.02;96705.81;4940594;28;20196;-93
2022/12/12 02:18:49;;;;;;;5.70;5.20;;;;;;;19.54;44.07;96617.97;4911072;28;23368;-92
2022/12/12 02:21:40;;;;;;;6.47;5.87;;;;;;;18.56;44.00;96472.16;4939893;28;20216;-92
2022/12/12 02:24:13;;;;;;;5.60;5.10;;;;;;;20.05;44.21;96705.81;4940531;28;20277;-93
2022/12/12 02:26:48;;;;;;;4.93;4.53;;;;;;;19.53;44.25;96631.50;4933783;28;20197;-93
2022/12/12 02:29:42;;;;;;;5.40;4.90;;;;;;;19.15;44.39;96566.03;4939607;28;20189;-89
2022/12/12 02:32:34;;;;;;;5.13;4.63;;;;;;;20.04;44.34;96705.78;4933777;28;20246;-93
2022/12/12 02:35:25;;;;;;;4.97;4.57;;;;;;;20.03;44.17;96715.09;4923141;29;20194;-93
2022/12/12 02:38:11;;;;;;;5.47;4.97;;;;;;;19.05;44.37;96559.88;4931013;28;20198;-93
2022/12/12 02:41:00;;;;;;;5.30;4.80;;;;;;;20.02;44.31;96723.59;4929894;28;20315;-92
2022/12/12 02:44:03;;;;;;;5.10;4.60;;;;;;;20.01;44.49;96731.22;4930938;28;20242;-93
2022/12/12 02:46:33;;;;;;;5.17;4.67;;;;;;;18.57;44.08;96472.19;4916963;29;20217;-93
2022/12/12 02:49:09;;;;;;;5.37;4.87;;;;;;;19.10;44.00;96572.72;4936799;28;20261;-91
2022/12/12 02:51:35;;;;;;;5.60;4.70;;;;;;;18.89;44.16;96531.47;4919819;29;20206;-93
2022/12/12 02:54:03;;;;;;;5.53;5.00;;;;;;;19.13;43.95;96581.28;4905874;28;20232;-93
2022/12/12 02:56:48;;;;;;;5.57;5.07;;;;;;;19.25;43.68;96609.63;4931223;28;20208;-93
2022/12/12 02:59:26;;;;;;;6.30;5.70;;;;;;;18.81;43.66;96522.78;4930882;28;20232;-90
2022/12/12 03:01:59;;;;;;;5.20;4.70;;;;;;;20.02;43.91;96722.72;4926728;28;20221;-92
2022/12/12 03:07:55;;;;;;;5.70;5.20;;;;;;;19.36;43.89;96612.44;4934076;28;20200;-90
2022/12/12 03:10:33;;;;;;;5.77;5.27;;;;;;;19.54;43.89;96651.09;4932174;28;20198;-93
2022/12/12 03:13:08;;;;;;;5.50;5.00;;;;;;;20.01;43.78;96726.94;4923936;28;20202;-93
2022/12/12 03:15:41;;;;;;;6.00;5.40;;;;;;;20.02;43.99;96726.16;4931589;28;20209;-93
2022/12/12 03:18:36;;;;;;;5.50;4.97;;;;;;;19.27;43.78;96604.59;4940845;28;20210;-92
2022/12/12 03:21:09;;;;;;;5.33;4.83;;;;;;;18.56;43.99;96493.34;4933115;28;20221;-93
2022/12/12 03:23:38;;;;;;;6.13;5.53;;;;;;;19.50;44.01;96656.94;4922461;29;20899;-93
2022/12/12 03:26:13;;;;;;;5.63;5.10;;;;;;;18.90;44.08;96551.88;4950867;28;20182;-93
2022/12/12 03:28:48;;;;;;;5.07;4.63;;;;;;;19.30;43.76;96614.84;4953741;28;20287;-93
2022/12/12 03:31:16;;;;;;;5.43;4.93;;;;;;;20.01;44.13;96747.34;4921260;28;20240;-93
2022/12/12 03:33:45;;;;;;;5.47;4.97;;;;;;;19.40;43.96;96624.41;4937512;28;20200;-94
2022/12/12 03:36:21;;;;;;;5.53;4.97;;;;;;;19.46;44.02;96630.53;4911094;28;20206;-91
2022/12/12 03:39:10;;;;;;;5.63;5.13;;;;;;;18.71;44.17;96503.06;4921164;29;20186;-93
2022/12/12 03:41:40;;;;;;;5.53;5.03;;;;;;;19.52;43.94;96643.41;4908246;28;20316;-92
2022/12/12 03:44:08;;;;;;;5.33;4.83;;;;;;;19.72;43.85;96670.19;4911082;29;20218;-93
2022/12/12 03:47:09;;;;;;;5.63;5.07;;;;;;;20.02;43.90;96726.16;4921156;29;20178;-92
2022/12/12 03:49:43;;;;;;;5.77;5.20;;;;;;;19.14;43.78;96574.50;4923359;28;20261;-93
2022/12/12 03:52:17;;;;;;;6.00;5.43;;;;;;;18.51;43.83;96469.50;4908455;28;20244;-92
2022/12/12 03:54:50;;;;;;;5.63;5.13;;;;;;;19.04;43.47;96557.31;4928313;28;20202;-93
2022/12/12 03:57:30;;;;;;;5.23;4.70;;;;;;;20.02;43.92;96724.44;4914298;29;20257;-93
2022/12/12 04:00:05;;;;;;;5.83;5.30;;;;;;;18.72;43.86;96504.75;4929591;28;20237;-93
2022/12/12 04:02:38;;;;;;;5.67;4.80;;;;;;;19.31;44.15;96607.25;4922507;28;20246;-90
2022/12/12 04:05:22;;;;;;;5.37;4.87;;;;;;;19.53;44.00;96657.88;4897605;28;20225;-94
2022/12/12 04:07:57;;;;;;;5.80;5.20;;;;;;;19.29;44.01;96608.00;4927264;28;20228;-95
2022/12/12 04:13:30;;;;;;;5.63;5.07;;;;;;;18.96;43.84;96538.44;4930637;28;20214;-92
2022/12/12 04:16:02;;;;;;;5.60;5.10;;;;;;;20.02;44.07;96729.53;4921942;29;20198;-93
2022/12/12 04:18:43;;;;;;;5.47;5.00;;;;;;;20.02;44.06;96722.72;4945320;28;20206;-92
2022/12/12 04:24:04;;;;;;;5.37;4.87;;;;;;;18.57;44.08;96484.03;4929334;28;20220;-94
2022/12/12 04:26:45;;;;;;;5.93;5.43;;;;;;;20.02;44.03;96724.44;4905142;29;20230;-93
2022/12/12 04:29:17;;;;;;;5.53;5.03;;;;;;;20.01;44.14;96732.06;4928681;28;20212;-94
2022/12/12 04:31:57;;;;;;;5.17;4.70;;;;;;;19.22;43.99;96593.38;4932516;28;20240;-93
2022/12/12 04:34:29;;;;;;;5.43;4.93;;;;;;;20.02;44.00;96736.34;4909838;28;20185;-92
2022/12/12 04:36:56;;;;;;;5.37;4.87;;;;;;;18.50;43.92;96480.47;4928979;28;20222;-93
2022/12/12 04:39:23;;;;;;;5.27;4.77;;;;;;;18.03;43.75;96392.81;4898210;29;20191;-92
2022/12/12 04:41:49;;;;;;;5.17;4.77;;;;;;;18.66;43.98;96495.31;4937102;28;20237;-92
2022/12/12 04:44:16;;;;;;;5.50;5.00;;;;;;;18.55;43.78;96490.75;4912715;28;20209;-92
2022/12/12 04:46:43;;;;;;;5.60;5.10;;;;;;;19.26;43.92;96613.00;4921150;29;20202;-92
2022/12/12 04:49:17;;;;;;;5.60;5.10;;;;;;;19.18;43.80;96612.81;4927848;28;20200;-94
2022/12/12 04:51:45;;;;;;;5.47;4.97;;;;;;;18.94;43.98;96552.81;4917982;29;20218;-93
2022/12/12 04:54:42;;;;;;;5.27;4.77;;;;;;;19.16;44.06;96603.44;4927983;28;20202;-90
2022/12/12 04:57:11;;;;;;;5.63;5.03;;;;;;;19.01;44.04;96581.00;4909371;28;20194;-92
2022/12/12 04:59:37;;;;;;;5.23;4.73;;;;;;;19.82;44.00;96707.84;4905649;29;20193;-93
2022/12/12 05:02:42;;;;;;;5.63;5.13;;;;;;;18.78;44.03;96549.03;4922537;28;20214;-93
2022/12/12 05:05:11;;;;;;;5.40;4.90;;;;;;;19.84;44.10;96718.91;4927118;28;20217;-92
2022/12/12 05:07:52;;;;;;;5.47;4.97;;;;;;;18.58;44.04;96501.00;4899691;28;20190;-93
2022/12/12 05:10:19;;;;;;;5.60;5.10;;;;;;;19.65;43.91;96687.88;4936192;28;20193;-88
2022/12/12 05:12:47;;;;;;;5.87;5.37;;;;;;;18.71;44.13;96508.13;4955446;28;20204;-93
2022/12/12 05:15:15;;;;;;;5.73;5.20;;;;;;;19.52;43.98;96648.50;4917045;29;20219;-90
2022/12/12 05:17:47;;;;;;;5.27;4.77;;;;;;;19.50;44.19;96669.66;4912964;28;20220;-93
2022/12/12 05:20:14;;;;;;;5.80;5.30;;;;;;;19.54;44.27;96653.66;4900815;29;20201;-89
2022/12/12 05:22:40;;;;;;;6.20;5.60;;;;;;;19.52;44.01;96658.72;4933681;28;20238;-92
2022/12/12 05:25:07;;;;;;;5.50;5.00;;;;;;;18.72;44.00;96514.94;4918164;29;20214;-93
2022/12/12 05:27:34;;;;;;;5.30;4.83;;;;;;;19.53;43.96;96659.53;4936396;28;20265;-92
2022/12/12 05:30:00;;;;;;;5.30;4.80;;;;;;;19.53;43.82;96662.09;4923384;28;20198;-92
2022/12/12 05:32:27;;;;;;;5.83;5.23;;;;;;;19.55;43.88;96668.09;4926397;28;20233;-92
2022/12/12 05:34:53;;;;;;;5.57;5.07;;;;;;;19.10;43.84;96603.28;4943758;28;20182;-92
2022/12/12 05:37:20;;;;;;;6.40;5.80;;;;;;;18.67;43.97;96522.47;4912328;28;20205;-93
2022/12/12 05:39:47;;;;;;;5.57;4.97;;;;;;;19.49;44.03;96673.91;4932458;28;20186;-94
2022/12/12 05:42:13;;;;;;;5.27;4.77;;;;;;;19.56;43.97;96675.78;4932536;28;20293;-90
2022/12/12 05:44:40;;;;;;;5.70;5.10;;;;;;;19.08;44.34;96598.16;4934882;28;20216;-93
2022/12/12 05:47:07;;;;;;;5.50;5.00;;;;;;;19.77;44.05;96717.06;4932300;28;20204;-93
2022/12/12 05:49:33;;;;;;;5.47;4.97;;;;;;;18.24;44.40;96467.06;4938139;28;20200;-93
2022/12/12 05:52:00;;;;;;;6.33;5.50;;;;;;;18.74;44.08;96543.84;4923824;28;20281;-93
2022/12/12 05:54:27;;;;;;;5.73;5.23;;;;;;;19.65;43.92;96703.16;4933898;28;20193;-92
2022/12/12 05:56:54;;;;;;;5.57;5.07;;;;;;;19.48;43.95;96679.81;4953470;28;20205;-94
2022/12/12 05:59:20;;;;;;;5.50;4.90;;;;;;;19.63;44.09;96705.66;4949743;28;20219;-93
2022/12/12 06:01:47;;;;;;;5.43;4.93;;;;;;;19.01;44.50;96595.44;4905308;29;20222;-90
2022/12/12 06:04:14;;;;;;;5.00;4.60;;;;;;;19.33;44.18;96655.69;4913039;29;20217;-91
2022/12/12 06:06:40;;;;;;;5.27;4.77;;;;;;;18.54;44.21;96533.16;4934997;29;20221;-91
2022/12/12 06:09:07;;;;;;;5.33;4.83;;;;;;;19.55;44.05;96703.78;4938715;29;20238;-90
2022/12/12 06:11:34;;;;;;;5.00;4.50;;;;;;;19.41;44.17;96677.09;4930981;29;20264;-90
2022/12/12 06:14:00;;;;;;;5.23;4.73;;;;;;;19.85;43.89;96745.28;4931890;29;20214;-90
2022/12/12 06:16:27;;;;;;;5.97;5.40;;;;;;;19.47;43.89;96692.53;4949357;29;20248;-90
2022/12/12 06:18:54;;;;;;;5.67;5.07;;;;;;;19.18;43.72;96637.41;4928290;29;20210;-89
2022/12/12 06:21:20;;;;;;;5.10;4.67;;;;;;;20.05;43.72;96782.31;4927531;29;20244;-91
2022/12/12 06:23:47;;;;;;;6.27;5.20;;;;;;;19.53;43.90;96700.31;4909445;29;20677;-90
2022/12/12 06:26:14;;;;;;;5.77;5.17;;;;;;;19.95;43.69;96776.13;4926308;29;20230;-89
2022/12/12 06:28:41;;;;;;;5.80;5.30;;;;;;;19.70;43.90;96740.69;4924538;29;20293;-89
2022/12/12 06:31:08;;;;;;;6.30;5.70;;;;;;;19.78;43.39;96751.91;4888460;29;20245;-89
2022/12/12 06:33:38;;;;;;;6.27;5.73;;;;;;;19.75;43.45;96756.94;4895193;29;20210;-91
2022/12/12 06:36:07;;;;;;;6.33;5.73;;;;;;;19.91;43.62;96794.75;4924826;29;20221;-89
2022/12/12 06:38:34;;;;;;;6.40;5.50;;;;;;;19.34;43.59;96678.66;4899976;29;20233;-91
2022/12/12 06:41:09;;;;;;;6.70;6.00;;;;;;;19.72;43.84;96744.13;4921506;29;20265;-90
2022/12/12 06:43:35;;;;;;;6.27;5.57;;;;;;;19.75;43.58;96749.28;4905813;29;20217;-90
2022/12/12 06:46:03;;;;;;;6.40;5.80;;;;;;;18.94;43.82;96627.50;4917468;29;20293;-92
2022/12/12 06:48:30;;;;;;;9.47;5.90;;;;;;;19.03;43.82;96629.41;4911570;29;20251;-90
2022/12/12 06:50:56;;;;;;;6.33;5.73;;;;;;;19.55;43.63;96719.06;4923715;29;20257;-90
2022/12/12 06:53:23;;;;;;;6.67;6.07;;;;;;;19.70;43.92;96760.22;4933910;29;20209;-91
2022/12/12 06:55:50;;;;;;;6.93;5.63;;;;;;;19.87;43.84;96792.94;4902997;29;20682;-89
2022/12/12 06:58:16;;;;;;;6.20;5.60;;;;;;;19.77;43.96;96779.94;4923743;29;20206;-91
2022/12/12 07:00:43;;;;;;;6.57;5.97;;;;;;;19.76;43.87;96784.19;4917644;29;20260;-89
2022/12/12 07:03:11;;;;;;;6.30;5.70;;;;;;;19.32;43.91;96700.66;4920371;29;20195;-88
2022/12/12 07:05:37;;;;;;;6.33;5.73;;;;;;;19.76;43.83;96789.28;4920660;29;20224;-88
2022/12/12 07:08:04;;;;;;;7.27;5.90;;;;;;;19.86;43.63;96800.53;4908763;29;20210;-90
2022/12/12 07:10:30;;;;;;;8.13;6.53;;;;;;;20.05;43.28;96835.88;4922838;29;20210;-87
2022/12/12 07:12:57;;;;;;;10.20;8.53;;;;;;;19.26;43.08;96699.59;4920382;29;20282;-88
2022/12/12 07:15:23;;;;;;;10.07;8.70;;;;;;;19.88;42.56;96809.97;4909791;29;20221;-88
2022/12/12 07:17:52;;;;;;;8.80;7.80;;;;;;;19.56;42.51;96753.91;4916665;29;20217;-90
2022/12/12 07:20:19;;;;;;;9.73;8.47;;;;;;;19.47;42.98;96740.94;4895723;29;20260;-87
2022/12/12 07:22:46;;;;;;;10.30;8.07;;;;;;;19.60;43.26;96760.81;4895629;29;20645;-90
2022/12/12 07:25:12;;;;;;;10.43;8.20;;;;;;;19.60;42.87;96769.31;4936677;29;20229;-90
2022/12/12 07:27:40;;;;;;;10.37;9.33;;;;;;;19.62;42.78;96771.91;4889133;29;20209;-91
2022/12/12 07:30:07;;;;;;;12.17;9.80;;;;;;;19.86;42.24;96818.38;4924122;29;20209;-89
2022/12/12 07:32:33;;;;;;;9.87;8.67;;;;;;;19.53;42.46;96764.03;4924518;29;20229;-90
2022/12/12 07:35:00;;;;;;;11.43;9.07;;;;;;;19.66;42.48;96794.94;4920328;29;20213;-90
2022/12/12 07:37:27;;;;;;;9.83;8.83;;;;;;;19.79;42.85;96807.19;4911462;29;20225;-89
2022/12/12 07:39:53;;;;;;;10.10;9.10;;;;;;;19.64;42.76;96786.44;4908381;29;20210;-89
2022/12/12 07:42:20;;;;;;;9.90;8.90;;;;;;;19.66;42.82;96802.59;4901550;29;20240;-90
2022/12/12 07:44:46;;;;;;;10.30;8.67;;;;;;;19.86;43.16;96836.25;4889397;29;20235;-90
2022/12/12 07:47:13;;;;;;;10.33;9.23;;;;;;;19.46;43.36;96769.81;4909353;29;20206;-89
2022/12/12 07:49:39;;;;;;;9.43;8.53;;;;;;;19.74;43.14;96823.19;4924813;29;20669;-90
2022/12/12 07:52:06;;;;;;;9.60;8.67;;;;;;;19.88;43.61;96844.81;4887142;29;20229;-88
2022/12/12 07:54:32;;;;;;;8.90;8.00;;;;;;;19.45;43.24;96774.03;4912850;29;20317;-88
2022/12/12 07:56:59;;;;;;;9.20;8.30;;;;;;;19.87;43.12;96845.63;4898233;29;20216;-89
2022/12/12 07:59:26;;;;;;;9.23;8.33;;;;;;;19.51;43.06;96794.56;4907795;29;20218;-89
2022/12/12 08:01:52;;;;;;;9.00;8.10;;;;;;;19.26;42.77;96746.34;4891804;29;20231;-90
2022/12/12 08:04:19;;;;;;;10.80;8.60;;;;;;;19.95;42.88;96862.84;4919219;29;20213;-89
2022/12/12 08:06:47;;;;;;;10.83;9.23;;;;;;;19.83;43.39;96847.22;4896191;29;20225;-89
2022/12/12 08:09:17;;;;;;;11.70;8.53;;;;;;;19.66;42.83;96824.69;4920843;29;20237;-89
2022/12/12 08:11:43;;;;;;;8.77;7.87;;;;;;;19.42;43.02;96790.94;4916592;29;20255;-89
2022/12/12 08:14:12;;;;;;;9.97;8.13;;;;;;;19.93;42.73;96874.69;4922783;29;20214;-89
2022/12/12 08:16:39;;;;;;;8.33;7.50;;;;;;;18.99;42.84;96717.59;4892602;29;20199;-89
2022/12/12 08:19:06;;;;;;;9.43;8.27;;;;;;;19.80;43.66;96852.25;4895020;29;20681;-91
2022/12/12 08:21:33;;;;;;;8.70;7.80;;;;;;;19.60;43.34;96833.03;4916976;29;20329;-89
2022/12/12 08:24:01;;;;;;;8.53;7.60;;;;;;;19.18;43.25;96752.91;4916702;29;20225;-89
2022/12/12 08:26:28;;;;;;;9.80;7.70;;;;;;;19.10;43.54;96762.00;4931839;29;20230;-89
2022/12/12 08:28:55;;;;;;;7.97;7.17;;;;;;;19.81;43.46;96869.28;4939767;29;20214;-89
2022/12/12 08:31:21;;;;;;;7.97;7.17;;;;;;;19.49;43.08;96806.44;4918138;29;20230;-90
2022/12/12 08:33:52;;;;;;;8.27;7.40;;;;;;;19.40;43.55;96793.44;4919168;29;20209;-90
2022/12/12 08:36:23;;;;;;;9.23;7.83;;;;;;;19.93;43.48;96889.97;4908572;29;20209;-89
2022/12/12 08:38:49;;;;;;;9.47;8.47;;;;;;;19.64;43.32;96839.09;4921278;29;20210;-90
2022/12/12 08:41:16;;;;;;;12.50;11.17;;;;;;;19.02;40.64;96735.50;4916038;29;20361;-90
2022/12/12 08:43:43;;;;;;;12.23;10.90;;;;;;;19.41;39.78;96796.84;4910001;29;20273;-88
2022/12/12 08:46:10;;;;;;;11.27;10.07;;;;;;;19.29;40.28;96776.13;4896789;29;20293;-89
2022/12/12 08:48:43;;;;;;;10.73;9.63;;;;;;;19.82;40.73;96870.16;4894673;29;20664;-89
2022/12/12 08:51:09;;;;;;;11.93;10.20;;;;;;;19.30;41.13;96793.16;4905664;29;20236;-89
2022/12/12 08:53:36;;;;;;;12.07;10.37;;;;;;;19.57;40.90;96832.13;4880760;29;20213;-91
2022/12/12 08:56:03;;;;;;;11.47;10.10;;;;;;;19.74;41.50;96866.53;4895222;29;20245;-90
2022/12/12 08:58:29;;;;;;;11.27;9.23;;;;;;;19.70;41.58;96867.28;4881013;29;20218;-91
2022/12/12 09:00:56;;;;;;;11.03;9.23;;;;;;;19.58;41.43;96849.13;4890831;29;20231;-90
2022/12/12 09:03:23;;;;;;;11.43;9.30;;;;;;;19.43;41.92;96831.75;4887004;29;20218;-90
2022/12/12 09:05:54;;;;;;;10.00;9.00;;;;;;;19.41;42.10;96825.75;4886783;29;20653;-90
2022/12/12 09:08:21;;;;;;;9.93;8.67;;;;;;;19.52;42.15;96852.38;4901579;29;20274;-91
2022/12/12 09:10:48;;;;;;;10.63;8.60;;;;;;;19.62;42.21;96868.75;4886581;29;20260;-90
2022/12/12 09:13:16;;;;;;;9.17;8.20;;;;;;;19.63;42.37;96873.06;4871184;29;21006;-90
2022/12/12 09:15:43;;;;;;;8.90;8.10;;;;;;;19.71;42.52;96886.84;4876010;29;20269;-91
2022/12/12 09:18:09;;;;;;;8.70;7.80;;;;;;;19.54;42.34;96852.41;4911715;29;20303;-90
2022/12/12 09:20:36;;;;;;;8.70;7.80;;;;;;;19.68;42.43;96886.75;4912391;29;20309;-88
2022/12/12 09:23:02;;;;;;;9.03;8.07;;;;;;;19.54;42.74;96857.53;4888714;29;20223;-91
2022/12/12 09:25:29;;;;;;;9.03;8.13;;;;;;;19.82;42.82;96916.03;4909775;29;20232;-91
2022/12/12 09:27:56;;;;;;;8.87;7.80;;;;;;;19.40;42.38;96846.09;4908273;29;20209;-90
2022/12/12 09:30:22;;;;;;;8.57;7.67;;;;;;;19.51;42.60;96857.44;4905747;29;20306;-90
2022/12/12 09:32:49;;;;;;;9.10;8.07;;;;;;;19.46;42.63;96852.22;4887056;29;20949;-91
2022/12/12 09:35:16;;;;;;;8.43;7.53;;;;;;;19.44;42.66;96842.78;4882775;29;20212;-91
2022/12/12 09:37:43;;;;;;;8.23;7.50;;;;;;;19.16;42.66;96804.63;4877171;29;20213;-92
2022/12/12 09:40:15;;;;;;;8.50;7.70;;;;;;;19.64;42.37;96887.50;4894296;29;20249;-91
2022/12/12 09:42:45;;;;;;;8.27;7.47;;;;;;;19.30;42.21;96821.19;4901554;29;20277;-90
2022/12/12 09:45:12;;;;;;;8.80;7.20;;;;;;;19.53;42.38;96860.88;4889872;28;20217;-89
2022/12/12 09:47:44;;;;;;;8.07;7.27;;;;;;;19.92;42.31;96941.81;4914180;29;20230;-89
2022/12/12 09:50:40;;;;;;;8.33;7.53;;;;;;;20.01;42.48;96940.34;4903621;29;20185;-89
2022/12/12 09:53:12;;;;;;;8.30;7.50;;;;;;;19.74;42.59;96897.13;4948626;28;20214;-89
2022/12/12 09:55:47;;;;;;;7.63;6.73;;;;;;;19.19;42.25;96820.00;4935444;28;20383;-88
2022/12/12 09:58:29;;;;;;;7.83;7.03;;;;;;;20.00;42.65;96942.00;4940538;28;20201;-88
2022/12/12 10:00:58;;;;;;;8.27;7.40;;;;;;;19.67;42.54;96887.59;4925246;29;20256;-89
2022/12/12 10:03:41;;;;;;;7.53;6.77;;;;;;;19.56;42.57;96866.03;4923276;29;20288;-89
2022/12/12 10:06:08;;;;;;;7.33;6.63;;;;;;;19.66;42.78;96888.44;4924616;28;20230;-89
2022/12/12 10:09:08;;;;;;;7.43;6.73;;;;;;;20.00;42.70;96954.78;4901253;29;20719;-89
2022/12/12 10:11:53;;;;;;;8.13;7.33;;;;;;;19.62;42.59;96886.59;4907663;29;20230;-89
2022/12/12 10:14:42;;;;;;;6.83;6.23;;;;;;;19.99;42.83;96946.25;4890122;29;20279;-88
2022/12/12 10:17:16;;;;;;;7.47;6.67;;;;;;;19.79;42.68;96913.41;4935483;29;20577;-89
2022/12/12 10:19:49;;;;;;;7.37;6.67;;;;;;;19.70;42.82;96916.59;4900744;29;20209;-89
2022/12/12 10:22:22;;;;;;;7.67;5.93;;;;;;;19.66;42.96;96886.72;4895360;29;20298;-88
2022/12/12 10:25:05;;;;;;;6.67;6.07;;;;;;;19.72;42.73;96897.06;4895171;29;20215;-89
2022/12/12 10:27:32;;;;;;;6.93;6.23;;;;;;;19.13;43.15;96797.75;4924578;29;20230;-89
2022/12/12 10:30:03;;;;;;;6.63;5.93;;;;;;;20.01;42.60;96937.78;4926433;29;20209;-89
2022/12/12 10:32:49;;;;;;;7.13;6.43;;;;;;;20.01;42.35;96945.44;4925492;29;20233;-89
2022/12/12 10:35:40;;;;;;;6.43;5.83;;;;;;;19.74;42.67;96897.13;4925223;28;20240;-90
2022/12/12 10:38:25;;;;;;;6.73;6.10;;;;;;;20.02;42.72;96939.50;4906220;29;20214;-89
2022/12/12 10:41:27;;;;;;;7.03;6.33;;;;;;;20.02;42.74;96936.97;4905094;29;20226;-89
2022/12/12 10:44:04;;;;;;;6.47;5.80;;;;;;;19.87;42.70;96912.78;4895396;29;20213;-89
2022/12/12 10:46:36;;;;;;;6.60;5.90;;;;;;;19.91;43.20;96924.81;4889585;29;20633;-89
2022/12/12 10:49:12;;;;;;;6.80;6.07;;;;;;;20.01;43.30;96932.69;4890618;29;20214;-89
2022/12/12 10:51:39;;;;;;;6.23;5.63;;;;;;;19.70;42.89;96880.03;4905893;29;20233;-90
2022/12/12 10:54:16;;;;;;;5.70;5.20;;;;;;;20.01;42.96;96938.63;4891966;29;20233;-90
2022/12/12 10:57:08;;;;;;;5.97;5.37;;;;;;;20.01;43.12;96935.25;4893172;29;20213;-90
2022/12/12 10:59:47;;;;;;;6.50;5.90;;;;;;;20.01;43.13;96935.25;4933375;29;20695;-90
2022/12/12 11:02:21;;;;;;;6.30;5.70;;;;;;;20.02;42.96;96931.84;4919475;29;20436;-90
2022/12/12 11:04:48;;;;;;;7.67;5.60;;;;;;;19.60;43.43;96866.16;4901745;29;20248;-90
2022/12/12 11:07:18;;;;;;;6.10;5.50;;;;;;;19.33;43.07;96828.91;4919230;29;20240;-90
2022/12/12 11:09:45;;;;;;;5.97;5.37;;;;;;;19.21;43.18;96798.84;4884948;29;20210;-90
2022/12/12 11:12:13;;;;;;;5.53;5.03;;;;;;;19.72;43.46;96891.97;4904367;29;20229;-89
2022/12/12 11:14:46;;;;;;;5.97;5.40;;;;;;;20.01;43.22;96936.09;4913434;29;20214;-89
2022/12/12 11:17:28;;;;;;;6.53;5.93;;;;;;;20.01;43.03;96938.63;4912828;29;20666;-89
2022/12/12 11:19:56;;;;;;;5.80;5.30;;;;;;;19.81;42.80;96897.31;4928671;29;20797;-90
2022/12/12 11:22:23;;;;;;;6.00;5.40;;;;;;;19.62;42.54;96866.22;4911455;29;20237;-89
2022/12/12 11:24:49;;;;;;;6.90;6.20;;;;;;;19.74;42.69;96892.91;4890023;29;20245;-89
2022/12/12 11:27:30;;;;;;;7.23;6.47;;;;;;;19.71;42.42;96887.72;4904960;29;20249;-89
2022/12/12 11:29:58;;;;;;;6.77;6.17;;;;;;;19.82;42.67;96909.25;4904351;29;20206;-89
2022/12/12 11:32:29;;;;;;;6.57;5.97;;;;;;;19.60;42.78;96865.31;4898214;29;20785;-88
2022/12/12 11:34:58;;;;;;;6.97;6.27;;;;;;;19.44;42.72;96843.66;4893637;29;20237;-88
2022/12/12 11:37:27;;;;;;;6.27;5.70;;;;;;;19.68;42.96;96874.88;4900131;29;20210;-89
2022/12/12 11:39:54;;;;;;;6.97;6.27;;;;;;;19.98;42.86;96930.06;4921986;29;20479;-89
2022/12/12 11:42:24;;;;;;;9.00;5.97;;;;;;;19.72;43.03;96891.97;4875318;29;20238;-88
2022/12/12 11:45:07;;;;;;;6.60;6.00;;;;;;;19.49;43.02;96842.09;4877499;29;20723;-87
2022/12/12 11:47:41;;;;;;;6.23;5.63;;;;;;;19.10;42.93;96779.00;4926496;29;20315;-89
2022/12/12 11:50:16;;;;;;;5.73;5.23;;;;;;;20.02;42.82;96919.97;4908847;29;20210;-89
2022/12/12 11:52:43;;;;;;;6.27;5.67;;;;;;;19.87;42.62;96904.28;4905424;29;20729;-90
2022/12/12 11:55:19;;;;;;;6.43;5.83;;;;;;;19.51;43.07;96842.97;4896686;29;20205;-89
2022/12/12 11:57:59;;;;;;;7.17;6.10;;;;;;;20.00;43.08;96919.06;4881317;29;20238;-89